Time;durP1;ratioP1;P1;durP2;ratioP2;P2;SDS_P1;SDS_P2;PMS_P1;PMS_P2;Temp;Humidity;BMP_temperature;BMP_pressure;BME280_temperature;BME280_humidity;BME280_pressure;Samples;Min_cycle;Max_cycle;Signal;HPM_P1;HPM_P2
2022/05/29 00:02:58;;;;;;;2.63;0.55;;;16.20;55.00;;;;;;6235412;28;20106;-83
2022/05/29 00:06:00;;;;;;;2.40;0.57;;;16.20;55.20;;;;;;6231031;28;20089;-82
2022/05/29 00:09:03;;;;;;;3.08;0.60;;;16.10;55.50;;;;;;6226877;28;20144;-82
2022/05/29 00:12:08;;;;;;;3.03;0.85;;;16.10;56.10;;;;;;6226799;28;20129;-82
2022/05/29 00:15:11;;;;;;;2.00;0.60;;;16.10;56.50;;;;;;6226516;28;20080;-82
2022/05/29 00:18:13;;;;;;;3.33;0.68;;;16.00;55.80;;;;;;6225823;28;20060;-82
2022/05/29 00:21:15;;;;;;;1.63;0.55;;;16.00;56.30;;;;;;6226563;28;20045;-82
2022/05/29 00:24:16;;;;;;;3.63;1.05;;;15.90;56.10;;;;;;6226675;28;20100;-82
2022/05/29 00:27:20;;;;;;;4.45;0.90;;;15.80;56.30;;;;;;6217083;28;20513;-82
2022/05/29 00:30:22;;;;;;;8.75;1.17;;;15.80;57.10;;;;;;6202728;28;20064;-82
2022/05/29 00:33:23;;;;;;;3.97;0.90;;;15.70;56.60;;;;;;6202283;28;20117;-82
2022/05/29 00:36:26;;;;;;;1.73;0.60;;;15.70;56.80;;;;;;6213456;28;20050;-82
2022/05/29 00:39:29;;;;;;;2.20;0.80;;;15.70;57.00;;;;;;6227341;28;20141;-82
2022/05/29 00:42:32;;;;;;;8.20;0.98;;;15.70;57.10;;;;;;6227168;28;20057;-82
2022/05/29 00:45:45;;;;;;;10.93;1.08;;;15.70;57.10;;;;;;6227829;28;20049;-82
2022/05/29 00:48:47;;;;;;;4.30;0.70;;;15.70;57.10;;;;;;6227404;28;20140;-82
2022/05/29 00:51:53;;;;;;;1.70;0.70;;;15.70;57.10;;;;;;6247059;28;20532;-82
2022/05/29 00:54:59;;;;;;;8.30;1.20;;;15.70;57.40;;;;;;6251780;28;20053;-82
2022/05/29 00:58:05;;;;;;;0.90;0.40;;;15.70;57.40;;;;;;6231913;28;20390;-82
2022/05/29 01:01:07;;;;;;;5.38;0.40;;;15.50;57.60;;;;;;6227470;28;20038;-81
2022/05/29 01:04:11;;;;;;;3.63;0.63;;;15.60;57.90;;;;;;6227114;28;20424;-81
2022/05/29 01:07:16;;;;;;;1.75;0.80;;;15.50;57.90;;;;;;6227434;28;20042;-81
2022/05/29 01:10:19;;;;;;;2.20;0.60;;;15.50;58.20;;;;;;6211732;28;20069;-82
2022/05/29 01:13:33;;;;;;;3.72;1.00;;;15.40;58.30;;;;;;6203681;28;20046;-81
2022/05/29 01:16:46;;;;;;;3.60;1.05;;;15.40;58.70;;;;;;6204300;28;20046;-81
2022/05/29 01:20:05;;;;;;;3.92;0.65;;;15.30;59.00;;;;;;6204951;28;20129;-81
2022/05/29 01:23:50;;;;;;;2.20;0.63;;;15.30;59.50;;;;;;6202693;28;20501;-81
2022/05/29 01:27:19;;;;;;;5.85;0.95;;;15.20;59.80;;;;;;6202625;28;20054;-81
2022/05/29 01:30:25;;;;;;;8.13;1.15;;;15.10;60.30;;;;;;6203158;28;20065;-81
2022/05/29 01:33:36;;;;;;;6.03;1.10;;;15.10;60.50;;;;;;6202341;28;20046;-82
2022/05/29 01:36:47;;;;;;;5.28;0.65;;;15.10;60.70;;;;;;6216473;28;20049;-82
2022/05/29 01:39:58;;;;;;;6.85;0.63;;;15.10;60.90;;;;;;6224488;28;20052;-82
2022/05/29 01:43:10;;;;;;;7.50;0.70;;;15.10;61.20;;;;;;6225319;28;20045;-82
2022/05/29 01:46:18;;;;;;;1.50;0.70;;;15.00;61.40;;;;;;6211837;28;20050;-82
2022/05/29 01:49:32;;;;;;;7.00;1.17;;;15.00;61.90;;;;;;6201286;28;20173;-82
2022/05/29 01:52:39;;;;;;;4.32;0.80;;;14.90;62.40;;;;;;6200974;28;20135;-82
2022/05/29 01:55:45;;;;;;;2.95;0.60;;;14.80;62.80;;;;;;6203090;28;20057;-82
2022/05/29 01:58:53;;;;;;;6.78;1.05;;;14.90;63.20;;;;;;6203785;28;20054;-82
2022/05/29 02:02:03;;;;;;;8.93;2.88;;;14.90;63.10;;;;;;6204976;28;20056;-82
2022/05/29 02:05:09;;;;;;;3.80;0.85;;;14.90;63.00;;;;;;6203812;28;20126;-82
2022/05/29 02:08:15;;;;;;;3.45;0.88;;;14.90;63.00;;;;;;6203257;28;20042;-82
2022/05/29 02:11:22;;;;;;;4.45;0.80;;;15.00;63.30;;;;;;6202699;28;20417;-82
2022/05/29 02:14:28;;;;;;;6.00;1.02;;;15.00;63.50;;;;;;6201991;28;20050;-82
2022/05/29 02:17:40;;;;;;;11.73;1.10;;;14.90;63.30;;;;;;6202710;28;20052;-82
2022/05/29 02:20:44;;;;;;;4.47;0.98;;;14.80;63.80;;;;;;6227061;28;20046;-83
2022/05/29 02:23:50;;;;;;;2.42;0.57;;;14.80;64.20;;;;;;6225518;28;20046;-83
2022/05/29 02:26:55;;;;;;;4.90;0.68;;;14.80;64.10;;;;;;6225523;28;20061;-82
2022/05/29 02:29:59;;;;;;;3.50;0.88;;;14.80;63.90;;;;;;6226581;28;20523;-82
2022/05/29 02:33:08;;;;;;;3.13;0.57;;;14.80;63.50;;;;;;6225110;28;20501;-82
2022/05/29 02:36:23;;;;;;;1.02;0.57;;;14.80;63.50;;;;;;6227176;28;20129;-83
2022/05/29 02:39:36;;;;;;;3.97;0.88;;;14.70;63.50;;;;;;6227860;28;20525;-82
2022/05/29 02:42:43;;;;;;;2.85;1.20;;;14.70;63.80;;;;;;6229504;28;20082;-82
2022/05/29 02:45:49;;;;;;;7.63;1.50;;;14.60;64.10;;;;;;6228374;28;20046;-82
2022/05/29 02:49:01;;;;;;;2.25;0.70;;;14.50;64.30;;;;;;6227715;28;20054;-82
2022/05/29 02:52:08;;;;;;;5.15;0.93;;;14.40;64.50;;;;;;6229324;28;20050;-83
2022/05/29 02:55:10;;;;;;;6.03;1.13;;;14.40;64.60;;;;;;6225784;28;20124;-82
2022/05/29 02:58:18;;;;;;;3.22;0.77;;;14.30;65.00;;;;;;6228554;28;20131;-82
2022/05/29 03:01:28;;;;;;;2.35;0.80;;;14.20;65.40;;;;;;6217809;28;20573;-82
2022/05/29 03:04:37;;;;;;;5.05;1.27;;;14.10;65.50;;;;;;6202200;28;20054;-82
2022/05/29 03:07:51;;;;;;;3.53;1.15;;;14.00;65.90;;;;;;6212920;28;20050;-81
2022/05/29 03:10:59;;;;;;;11.75;1.15;;;14.00;66.20;;;;;;6203411;28;20054;-82
2022/05/29 03:14:05;;;;;;;8.80;1.08;;;14.00;66.40;;;;;;6204442;28;20121;-82
2022/05/29 03:17:15;;;;;;;6.35;1.27;;;14.00;66.70;;;;;;6202117;28;20042;-82
2022/05/29 03:20:36;;;;;;;9.98;0.95;;;13.90;67.00;;;;;;6218987;28;20038;-82
2022/05/29 03:23:47;;;;;;;5.75;1.83;;;13.90;67.30;;;;;;6203877;28;20052;-82
2022/05/29 03:26:57;;;;;;;8.45;1.25;;;13.80;67.80;;;;;;6203478;28;20064;-82
2022/05/29 03:30:05;;;;;;;1.40;0.85;;;13.60;68.70;;;;;;6202819;28;20061;-81
2022/05/29 03:33:12;;;;;;;11.15;1.20;;;13.50;69.20;;;;;;6201255;28;20050;-82
2022/05/29 03:36:16;;;;;;;4.00;0.88;;;13.30;70.00;;;;;;6201952;28;20034;-81
2022/05/29 03:39:18;;;;;;;4.78;0.82;;;13.20;70.50;;;;;;6200713;28;20046;-82
2022/05/29 03:42:19;;;;;;;3.80;0.85;;;13.10;70.90;;;;;;6201776;28;20130;-81
2022/05/29 03:45:22;;;;;;;5.63;1.13;;;13.10;71.50;;;;;;6201565;28;20046;-82
2022/05/29 03:48:23;;;;;;;1.80;0.52;;;13.00;71.70;;;;;;6201961;28;20053;-81
2022/05/29 03:51:26;;;;;;;6.28;1.55;;;13.10;71.70;;;;;;6201309;28;20046;-81
2022/05/29 03:54:29;;;;;;;7.70;2.03;;;13.10;71.60;;;;;;6202449;28;20054;-81
2022/05/29 03:57:31;;;;;;;3.17;1.00;;;13.20;71.50;;;;;;6201413;28;20076;-82
2022/05/29 04:00:33;;;;;;;6.30;0.90;;;13.30;71.20;;;;;;6200062;28;20124;-81
2022/05/29 04:03:35;;;;;;;2.67;0.90;;;13.40;70.90;;;;;;6200483;28;20073;-82
2022/05/29 04:06:40;;;;;;;4.88;1.10;;;13.50;71.10;;;;;;6203337;28;20057;-83
2022/05/29 04:13:01;;;;;;;6.78;0.82;;;13.60;73.50;;;;;;6203834;28;20042;-82
2022/05/29 04:16:02;;;;;;;5.90;1.10;;;13.40;75.20;;;;;;6203010;28;20096;-81
2022/05/29 04:19:04;;;;;;;3.78;0.80;;;13.20;76.60;;;;;;6202595;28;20053;-82
2022/05/29 04:22:14;;;;;;;14.77;2.35;;;13.00;77.80;;;;;;6212172;28;20137;-82
2022/05/29 04:25:16;;;;;;;7.53;1.02;;;12.90;79.30;;;;;;6203119;28;20050;-81
2022/05/29 04:28:19;;;;;;;6.82;1.25;;;12.80;80.20;;;;;;6203415;28;20046;-82
2022/05/29 04:31:21;;;;;;;3.67;1.10;;;12.90;81.30;;;;;;6202246;28;20049;-83
2022/05/29 04:34:23;;;;;;;6.78;1.23;;;12.90;81.10;;;;;;6203983;28;20425;-82
2022/05/29 04:37:28;;;;;;;3.97;1.30;;;13.00;81.40;;;;;;6203453;28;20422;-82
2022/05/29 04:40:31;;;;;;;6.47;1.23;;;13.20;81.30;;;;;;6206958;28;20043;-82
2022/05/29 04:43:32;;;;;;;9.25;3.03;;;13.40;81.10;;;;;;6207161;28;20153;-83
2022/05/29 04:46:34;;;;;;;7.78;1.02;;;13.70;80.60;;;;;;6209449;28;20142;-83
2022/05/29 04:49:37;;;;;;;2.95;1.08;;;14.00;79.70;;;;;;6207827;28;20061;-82
2022/05/29 04:52:40;;;;;;;4.80;1.05;;;14.30;79.00;;;;;;6203843;28;20046;-81
2022/05/29 04:55:43;;;;;;;4.88;1.15;;;14.80;77.80;;;;;;6205992;28;20057;-82
2022/05/29 04:58:44;;;;;;;7.20;1.00;;;15.60;75.70;;;;;;6206622;28;20055;-81
2022/05/29 05:01:46;;;;;;;4.55;1.35;;;15.90;73.60;;;;;;6207118;28;20580;-82
2022/05/29 05:04:48;;;;;;;3.38;1.00;;;15.80;73.70;;;;;;6205913;28;20053;-82
2022/05/29 05:07:51;;;;;;;4.78;1.98;;;15.60;73.90;;;;;;6207561;28;20050;-81
2022/05/29 05:10:53;;;;;;;6.68;2.08;;;15.30;74.10;;;;;;6216895;28;20056;-81
2022/05/29 05:13:54;;;;;;;7.03;1.20;;;15.10;74.40;;;;;;6229298;28;20062;-81
2022/05/29 05:16:56;;;;;;;3.88;1.33;;;14.90;75.00;;;;;;6230521;28;20073;-81
2022/05/29 05:19:58;;;;;;;11.20;1.23;;;14.80;75.60;;;;;;6230756;28;20464;-81
2022/05/29 05:23:02;;;;;;;8.43;1.95;;;14.60;75.70;;;;;;6223336;28;20401;-82
2022/05/29 05:26:09;;;;;;;6.35;1.90;;;14.50;76.20;;;;;;6229604;28;20104;-81
2022/05/29 05:29:11;;;;;;;6.88;1.67;;;14.30;79.40;;;;;;6229570;28;20049;-83
2022/05/29 05:32:14;;;;;;;10.52;1.67;;;13.90;86.60;;;;;;6228188;28;20501;-83
2022/05/29 05:35:15;;;;;;;10.38;1.63;;;13.50;92.30;;;;;;6228769;28;20096;-83
2022/05/29 05:38:18;;;;;;;7.88;1.05;;;13.10;96.10;;;;;;6228665;28;20093;-83
2022/05/29 05:41:21;;;;;;;7.68;1.38;;;12.90;97.40;;;;;;6228965;28;20056;-84
2022/05/29 05:44:23;;;;;;;8.77;1.42;;;12.90;98.30;;;;;;6229371;28;20068;-83
2022/05/29 05:47:25;;;;;;;8.20;1.30;;;12.60;98.40;;;;;;6227601;28;20529;-82
2022/05/29 05:50:27;;;;;;;3.63;1.10;;;12.40;99.00;;;;;;6228212;28;20058;-83
2022/05/29 05:53:30;;;;;;;8.70;1.42;;;12.30;98.80;;;;;;6227345;28;20088;-84
2022/05/29 05:56:32;;;;;;;5.25;1.10;;;12.30;99.40;;;;;;6229807;28;20045;-83
2022/05/29 05:59:35;;;;;;;22.42;1.83;;;12.30;99.80;;;;;;6226921;28;20374;-83
2022/05/29 06:02:37;;;;;;;5.38;1.38;;;12.40;99.90;;;;;;6228180;28;20054;-83
2022/05/29 06:05:38;;;;;;;11.05;1.38;;;12.60;99.90;;;;;;6228306;28;20436;-83
2022/05/29 06:08:42;;;;;;;15.80;1.60;;;12.90;99.90;;;;;;6229353;28;20109;-82
2022/05/29 06:11:44;;;;;;;8.02;1.27;;;13.10;99.70;;;;;;6231539;28;20711;-83
2022/05/29 06:14:46;;;;;;;8.02;1.38;;;13.10;99.30;;;;;;6231264;28;20066;-83
2022/05/29 06:17:48;;;;;;;5.20;1.40;;;13.30;99.10;;;;;;6231812;28;20060;-82
2022/05/29 06:20:57;;;;;;;8.15;1.60;;;13.60;98.40;;;;;;6230907;28;20072;-83
2022/05/29 06:24:00;;;;;;;5.57;1.33;;;13.80;97.50;;;;;;6228430;28;20041;-82
2022/05/29 06:27:02;;;;;;;6.20;1.35;;;14.10;97.10;;;;;;6227730;28;20095;-83
2022/05/29 06:30:07;;;;;;;5.40;1.00;;;14.30;96.00;;;;;;6227693;28;20492;-82
2022/05/29 06:33:09;;;;;;;7.32;1.67;;;14.50;95.10;;;;;;6227908;28;20074;-82
2022/05/29 06:36:13;;;;;;;3.47;1.38;;;14.70;94.90;;;;;;6230125;28;20045;-83
2022/05/29 06:39:16;;;;;;;6.60;1.83;;;14.80;94.40;;;;;;6229602;28;20570;-83
2022/05/29 06:42:18;;;;;;;11.48;1.98;;;15.00;94.00;;;;;;6230894;28;20375;-83
2022/05/29 06:45:20;;;;;;;2.90;0.93;;;15.30;94.00;;;;;;6244114;23;20124;-84
2022/05/29 06:48:22;;;;;;;4.00;1.30;;;15.60;92.80;;;;;;6204981;28;20056;-84
2022/05/29 06:51:25;;;;;;;5.72;1.30;;;15.70;92.10;;;;;;6199576;28;20046;-85
2022/05/29 06:54:28;;;;;;;8.85;1.25;;;15.90;91.50;;;;;;6199442;28;20043;-85
2022/05/29 06:57:40;;;;;;;10.25;2.33;;;15.90;90.90;;;;;;6197802;28;20047;-87
2022/05/29 07:07:36;;;;;;;14.27;1.80;;;15.90;90.40;;;;;;6147934;29;20054;-85
2022/05/29 07:10:40;;;;;;;5.85;1.38;;;15.90;90.30;;;;;;6214209;28;20054;-84
2022/05/29 07:13:43;;;;;;;4.57;1.13;;;15.90;91.00;;;;;;6214357;28;20030;-85
2022/05/29 07:16:45;;;;;;;6.85;1.42;;;15.80;88.40;;;;;;6209343;28;20613;-85
2022/05/29 07:19:47;;;;;;;9.05;1.58;;;15.20;88.00;;;;;;6198586;28;20700;-84
2022/05/29 07:22:49;;;;;;;4.38;1.27;;;14.50;90.60;;;;;;6197208;28;20047;-84
2022/05/29 07:25:52;;;;;;;5.72;1.75;;;14.20;92.70;;;;;;6198732;28;20395;-84
2022/05/29 07:28:54;;;;;;;5.05;1.42;;;13.90;94.40;;;;;;6198421;28;20046;-84
2022/05/29 07:31:56;;;;;;;9.90;1.77;;;13.70;96.10;;;;;;6199304;28;20176;-85
2022/05/29 07:34:58;;;;;;;6.43;1.58;;;13.70;97.00;;;;;;6198631;28;20049;-85
2022/05/29 07:38:01;;;;;;;7.25;1.77;;;13.80;97.40;;;;;;6199538;28;20050;-85
2022/05/29 07:43:18;;;;;;;12.85;1.58;;;13.80;97.30;;;;;;6198926;28;20077;-85
2022/05/29 07:44:25;;;;;;;11.40;2.38;;;13.90;97.20;;;;;;6209866;28;20139;-86
2022/05/29 07:47:29;;;;;;;10.18;2.67;;;13.80;97.30;;;;;;6189916;28;20431;-85
2022/05/29 07:50:31;;;;;;;10.40;2.08;;;13.70;97.60;;;;;;6175459;28;20082;-85
2022/05/29 07:53:32;;;;;;;8.90;1.42;;;13.60;97.80;;;;;;6175183;28;20043;-84
2022/05/29 07:56:36;;;;;;;6.63;2.30;;;13.50;97.80;;;;;;6174085;28;20520;-84
2022/05/29 07:59:38;;;;;;;4.95;1.35;;;13.40;98.00;;;;;;6176612;28;20101;-85
2022/05/29 08:02:40;;;;;;;7.25;1.85;;;13.30;98.10;;;;;;6174177;28;20051;-83
2022/05/29 08:05:51;;;;;;;10.82;1.88;;;13.10;98.70;;;;;;6174840;28;20407;-85
2022/05/29 08:08:53;;;;;;;7.70;1.45;;;12.80;98.10;;;;;;6174937;28;20051;-84
2022/05/29 08:12:03;;;;;;;8.57;1.23;;;12.40;98.50;;;;;;6178611;28;20056;-85
2022/05/29 08:15:07;;;;;;;6.50;1.50;;;12.20;99.30;;;;;;6190992;28;20058;-88
2022/05/29 08:18:09;;;;;;;4.88;1.60;;;12.20;99.90;;;;;;6170310;28;20125;-85
2022/05/29 08:21:12;;;;;;;10.82;2.10;;;12.30;99.90;;;;;;6178470;28;20065;-85
2022/05/29 08:32:10;;;;;;;5.35;1.83;;;13.50;99.90;;;;;;6204417;28;20445;-84
2022/05/29 08:35:12;;;;;;;4.60;1.48;;;14.30;99.90;;;;;;6199153;28;20050;-84
2022/05/29 08:46:18;;;;;;;8.88;1.50;;;14.30;97.30;;;;;;6112197;29;20059;-84
2022/05/29 09:06:10;;;;;;;4.57;0.80;;;15.30;97.10;;;;;;5990985;29;20058;-83
2022/05/29 09:13:01;;;;;;;4.20;1.00;;;16.40;91.70;;;;;;6053540;29;20052;-85
2022/05/29 09:16:25;;;;;;;1.40;0.57;;;17.40;92.00;;;;;;6102347;29;20152;-84
2022/05/29 09:20:07;;;;;;;2.33;0.52;;;18.20;90.60;;;;;;6120457;28;20449;-83
2022/05/29 09:31:05;;;;;;;5.93;0.88;;;19.20;85.70;;;;;;6176444;28;20584;-86
2022/05/29 09:34:20;;;;;;;3.22;0.70;;;19.60;83.50;;;;;;6160104;28;20434;-86
2022/05/29 09:38:24;;;;;;;4.93;0.60;;;19.70;81.40;;;;;;6171793;28;20062;-85
2022/05/29 10:14:36;;;;;;;1.73;0.47;;;23.90;59.90;;;;;;5944355;29;20063;-86
2022/05/29 10:18:41;;;;;;;4.43;0.63;;;23.20;54.60;;;;;;5943359;30;20527;-86
2022/05/29 10:46:22;;;;;;;3.80;0.63;;;20.20;55.90;;;;;;5921507;30;20739;-88
2022/05/29 10:49:31;;;;;;;2.55;0.40;;;20.10;56.20;;;;;;5958282;29;20060;-86
2022/05/29 10:52:51;;;;;;;2.20;0.93;;;20.10;57.20;;;;;;6122234;29;20051;-88
2022/05/29 10:56:02;;;;;;;1.98;0.40;;;20.80;60.10;;;;;;6147951;29;20070;-88
2022/05/29 10:59:17;;;;;;;3.88;0.50;;;21.60;59.40;;;;;;6148552;28;20115;-85
2022/05/29 11:06:28;;;;;;;2.33;0.38;;;22.50;53.20;;;;;;6187783;28;20042;-87
2022/05/29 11:09:38;;;;;;;;;;;22.70;52.00;;;;;;6200550;28;20047;-86
2022/05/29 11:12:51;;;;;;;15.75;0.90;;;22.80;47.80;;;;;;6192206;28;19922;-85
2022/05/29 11:16:07;;;;;;;3.03;0.73;;;22.20;50.40;;;;;;6177460;28;20050;-88
2022/05/29 11:19:36;;;;;;;3.03;0.55;;;22.50;47.00;;;;;;6174526;28;20046;-84
2022/05/29 11:22:44;;;;;;;;;;;23.00;46.50;;;;;;6175986;28;20050;-86
2022/05/29 11:25:58;;;;;;;3.72;0.38;;;23.30;53.90;;;;;;6175469;28;19929;-86
2022/05/29 11:29:19;;;;;;;4.53;0.95;;;23.60;47.80;;;;;;6189971;28;20054;-87
2022/05/29 11:32:34;;;;;;;2.22;0.50;;;23.70;44.20;;;;;;6198433;28;20521;-89
2022/05/29 11:35:51;;;;;;;7.18;1.13;;;23.00;45.70;;;;;;6198630;28;20178;-88
2022/05/29 11:39:19;;;;;;;2.28;0.60;;;22.70;48.50;;;;;;6197890;28;20050;-88
2022/05/29 11:42:27;;;;;;;1.80;0.40;;;22.80;49.70;;;;;;6187758;28;20050;-88
2022/05/29 11:52:28;;;;;;;4.30;0.40;;;23.70;46.20;;;;;;6174113;28;20051;-88
2022/05/29 11:55:38;;;;;;;3.20;0.70;;;24.20;46.80;;;;;;6174171;28;20051;-86
2022/05/29 11:58:46;;;;;;;1.15;0.40;;;24.70;43.00;;;;;;6174028;28;20053;-87
2022/05/29 12:01:53;;;;;;;3.20;0.80;;;24.20;42.40;;;;;;6175265;28;20202;-88
2022/05/29 12:05:05;;;;;;;6.68;2.03;;;23.70;41.70;;;;;;6173810;28;20535;-87
2022/05/29 12:08:12;;;;;;;1.80;0.73;;;23.50;46.50;;;;;;6174063;28;20043;-88
2022/05/29 12:11:39;;;;;;;8.30;0.85;;;24.00;46.60;;;;;;6185789;28;20613;-88
2022/05/29 12:14:46;;;;;;;2.25;0.60;;;24.10;46.10;;;;;;6194530;28;20046;-88
2022/05/29 12:17:55;;;;;;;4.55;0.85;;;24.10;43.30;;;;;;6199132;28;20069;-87
2022/05/29 12:21:02;;;;;;;5.18;0.65;;;23.90;44.70;;;;;;6213105;28;20497;-88
2022/05/29 12:24:09;;;;;;;2.70;0.50;;;23.80;42.00;;;;;;6198860;28;20057;-89
2022/05/29 12:27:16;;;;;;;4.43;1.02;;;23.60;42.50;;;;;;6197633;28;20096;-89
2022/05/29 12:30:26;;;;;;;2.27;1.00;;;23.40;42.40;;;;;;6196972;28;20080;-88
2022/05/29 12:33:28;;;;;;;6.35;1.08;;;23.70;43.90;;;;;;6198816;28;20065;-88
2022/05/29 12:36:49;;;;;;;3.28;0.77;;;24.10;43.60;;;;;;6197096;28;20054;-84
2022/05/29 12:40:22;;;;;;;3.38;0.60;;;24.60;41.80;;;;;;6197343;28;20046;-87
2022/05/29 12:43:53;;;;;;;2.75;0.88;;;25.10;40.60;;;;;;6182625;28;20510;-88
2022/05/29 12:47:12;;;;;;;2.67;0.60;;;25.70;41.70;;;;;;6175145;28;20074;-85
2022/05/29 12:50:33;;;;;;;1.88;0.60;;;25.90;38.50;;;;;;6173263;28;20055;-84
2022/05/29 12:54:16;;;;;;;5.30;0.93;;;26.00;37.40;;;;;;6174807;28;20070;-84
2022/05/29 12:57:51;;;;;;;4.28;0.85;;;26.20;35.90;;;;;;6176266;28;20474;-85
2022/05/29 13:01:10;;;;;;;4.13;0.57;;;25.90;37.80;;;;;;6188742;28;20137;-84
2022/05/29 13:04:36;;;;;;;1.52;0.57;;;26.20;35.20;;;;;;6206189;28;20050;-84
2022/05/29 13:08:15;;;;;;;4.65;1.17;;;26.10;35.50;;;;;;6179921;28;20059;-84
2022/05/29 13:11:23;;;;;;;3.78;0.77;;;26.10;35.40;;;;;;6171995;28;20127;-84
2022/05/29 13:14:26;;;;;;;1.90;0.70;;;26.20;35.40;;;;;;6196853;28;20049;-84
2022/05/29 13:17:33;;;;;;;1.80;0.40;;;25.80;34.50;;;;;;6203391;28;20054;-84
2022/05/29 13:21:11;;;;;;;3.53;0.75;;;25.50;35.80;;;;;;6202195;28;20043;-84
2022/05/29 13:24:18;;;;;;;1.42;0.43;;;25.40;36.10;;;;;;6201218;28;20513;-86
2022/05/29 13:27:32;;;;;;;1.33;0.40;;;25.20;33.90;;;;;;6202505;28;20047;-84
2022/05/29 13:31:04;;;;;;;4.15;0.70;;;25.00;34.20;;;;;;6200241;28;20043;-84
2022/05/29 13:34:31;;;;;;;3.00;0.57;;;24.90;36.00;;;;;;6201981;28;20046;-84
2022/05/29 13:37:43;;;;;;;6.90;0.60;;;24.80;36.40;;;;;;6202610;28;20648;-86
2022/05/29 13:41:03;;;;;;;5.93;0.85;;;24.60;36.10;;;;;;6198637;28;20402;-86
2022/05/29 13:44:30;;;;;;;4.07;0.63;;;24.30;36.10;;;;;;6201160;28;20502;-85
2022/05/29 13:47:46;;;;;;;1.95;0.57;;;24.20;35.20;;;;;;6202605;28;20054;-87
2022/05/29 13:51:05;;;;;;;3.30;0.70;;;24.30;35.00;;;;;;6202304;28;20502;-85
2022/05/29 13:54:10;;;;;;;3.58;0.77;;;24.50;34.90;;;;;;6203204;28;20053;-85
2022/05/29 14:03:58;;;;;;;4.63;1.05;;;24.70;35.20;;;;;;6202092;28;20050;-86
2022/05/29 14:04:16;;;;;;;3.55;0.70;;;24.50;34.40;;;;;;6212884;28;20369;-86
2022/05/29 14:07:28;;;;;;;1.80;0.70;;;24.60;34.30;;;;;;6207659;28;20057;-87
2022/05/29 14:10:31;;;;;;;4.20;0.55;;;24.40;33.80;;;;;;6202395;28;20073;-85
2022/05/29 14:13:36;;;;;;;5.07;0.60;;;23.70;34.20;;;;;;6202355;28;20148;-86
2022/05/29 14:16:46;;;;;;;2.03;0.52;;;23.20;35.80;;;;;;6201001;28;20061;-85
2022/05/29 14:20:09;;;;;;;9.63;0.90;;;23.20;36.00;;;;;;6201014;28;20053;-85
2022/05/29 14:23:33;;;;;;;1.40;0.60;;;23.10;35.00;;;;;;6201874;28;20042;-85
2022/05/29 14:26:58;;;;;;;2.63;0.73;;;23.00;35.60;;;;;;6200480;28;20132;-85
2022/05/29 14:30:17;;;;;;;1.55;0.77;;;23.30;34.90;;;;;;6202606;28;20054;-87
2022/05/29 14:33:48;;;;;;;4.78;1.52;;;23.50;35.80;;;;;;6202160;28;20070;-86
2022/05/29 14:39:59;;;;;;;5.13;0.77;;;23.90;34.50;;;;;;6250642;23;20403;-82
2022/05/29 14:43:06;;;;;;;1.75;0.43;;;23.50;34.80;;;;;;6220653;28;20092;-81
2022/05/29 14:46:15;;;;;;;4.03;2.22;;;23.00;35.50;;;;;;6230925;28;20481;-82
2022/05/29 14:49:22;;;;;;;4.15;0.63;;;22.40;36.10;;;;;;6229618;28;20057;-82
2022/05/29 14:52:33;;;;;;;2.45;0.40;;;21.90;37.10;;;;;;6233239;28;20050;-82
2022/05/29 14:55:43;;;;;;;2.50;0.40;;;21.70;38.50;;;;;;6236104;28;20417;-82
2022/05/29 14:58:45;;;;;;;6.93;0.50;;;21.50;39.40;;;;;;6235578;28;20046;-82
2022/05/29 15:01:48;;;;;;;5.13;0.77;;;21.20;38.20;;;;;;6229567;28;20057;-82
2022/05/29 15:04:51;;;;;;;2.00;0.43;;;21.00;38.50;;;;;;6226764;28;20085;-82
2022/05/29 15:11:20;;;;;;;4.50;0.77;;;20.80;39.70;;;;;;6226891;28;20536;-82
2022/05/29 15:14:23;;;;;;;5.13;0.80;;;20.90;39.30;;;;;;6219406;28;20129;-83
2022/05/29 15:17:24;;;;;;;2.70;0.60;;;21.20;38.10;;;;;;6226458;28;20060;-82
2022/05/29 15:24:12;;;;;;;3.45;0.60;;;22.10;37.00;;;;;;6228087;28;20045;-82
2022/05/29 15:27:18;;;;;;;4.03;1.25;;;22.30;36.90;;;;;;6225579;28;20038;-82
2022/05/29 15:30:22;;;;;;;4.68;0.80;;;22.10;36.30;;;;;;6226028;28;20045;-81
2022/05/29 15:33:34;;;;;;;1.67;0.40;;;22.10;37.30;;;;;;6211563;28;20050;-82
2022/05/29 15:36:43;;;;;;;3.03;0.45;;;22.30;36.90;;;;;;6202157;28;20054;-82
2022/05/29 15:39:53;;;;;;;3.63;0.47;;;22.40;36.40;;;;;;6202405;28;20444;-82
2022/05/29 15:43:14;;;;;;;0.85;0.40;;;23.10;35.90;;;;;;6212094;28;20093;-81
2022/05/29 15:46:31;;;;;;;2.28;0.60;;;23.40;34.50;;;;;;6202515;28;20061;-82
2022/05/29 15:50:01;;;;;;;6.20;0.60;;;23.30;34.60;;;;;;6203523;28;20105;-82
2022/05/29 15:53:36;;;;;;;0.65;0.25;;;23.10;34.60;;;;;;6201413;28;20050;-82
2022/05/29 15:56:50;;;;;;;1.90;0.50;;;22.70;35.40;;;;;;6195068;28;20501;-83
2022/05/29 16:00:03;;;;;;;2.70;0.60;;;22.10;37.60;;;;;;6225178;28;20077;-83
2022/05/29 16:03:06;;;;;;;3.28;1.10;;;21.50;38.90;;;;;;6227939;28;20125;-82
2022/05/29 16:06:16;;;;;;;5.90;0.75;;;21.10;39.10;;;;;;6228079;28;20053;-82
2022/05/29 16:09:18;;;;;;;2.38;0.52;;;20.80;39.80;;;;;;6236208;28;20129;-82
2022/05/29 16:12:20;;;;;;;3.08;0.55;;;20.70;40.10;;;;;;6219537;28;20074;-81
2022/05/29 16:15:49;;;;;;;1.38;0.35;;;20.50;40.80;;;;;;6226944;28;20049;-82
2022/05/29 16:19:08;;;;;;;3.28;0.85;;;20.20;40.60;;;;;;6224018;28;20046;-82
2022/05/29 16:22:24;;;;;;;5.63;0.63;;;19.60;41.10;;;;;;6225435;28;20045;-81
2022/05/29 16:25:29;;;;;;;2.65;0.55;;;19.30;42.10;;;;;;6223442;28;20050;-83
2022/05/29 16:28:38;;;;;;;2.38;0.30;;;19.20;42.40;;;;;;6225011;28;20425;-82
2022/05/29 16:31:48;;;;;;;2.40;0.57;;;19.30;42.30;;;;;;6222277;28;20046;-83
2022/05/29 16:35:04;;;;;;;3.47;0.60;;;19.50;42.50;;;;;;6224001;28;20069;-82
2022/05/29 16:48:39;;;;;;;2.25;0.90;;;20.30;39.80;;;;;;6204553;28;20105;-81
2022/05/29 16:51:55;;;;;;;1.70;0.65;;;20.40;39.00;;;;;;6203813;28;20121;-83
2022/05/29 16:55:02;;;;;;;3.00;0.57;;;20.20;39.40;;;;;;6202782;28;20057;-82
2022/05/29 16:58:05;;;;;;;3.90;0.60;;;20.10;39.20;;;;;;6204567;28;20509;-81
2022/05/29 17:01:14;;;;;;;3.78;1.20;;;20.10;39.00;;;;;;6204939;28;20085;-82
2022/05/29 17:04:31;;;;;;;4.97;0.55;;;20.00;39.60;;;;;;6207525;28;20565;-82
2022/05/29 17:07:41;;;;;;;6.85;0.63;;;20.10;39.80;;;;;;6204615;28;20630;-81
2022/05/29 17:10:49;;;;;;;2.88;0.63;;;20.30;39.40;;;;;;6206324;28;20039;-81
2022/05/29 17:13:52;;;;;;;2.28;0.57;;;20.30;39.40;;;;;;6221734;28;20131;-82
2022/05/29 17:16:54;;;;;;;4.43;0.73;;;20.20;39.70;;;;;;6231078;28;20409;-83
2022/05/29 17:19:58;;;;;;;2.08;0.50;;;20.10;41.00;;;;;;6230609;28;20524;-82
2022/05/29 17:23:06;;;;;;;4.93;0.50;;;19.90;42.40;;;;;;6216567;28;20125;-81
2022/05/29 17:26:11;;;;;;;5.15;0.70;;;19.80;44.30;;;;;;6215775;28;20050;-81
2022/05/29 17:29:21;;;;;;;3.63;0.80;;;19.60;46.50;;;;;;6206023;28;20432;-81
2022/05/29 17:32:27;;;;;;;1.77;0.63;;;19.40;46.20;;;;;;6206151;28;20402;-82
2022/05/29 17:35:37;;;;;;;2.95;0.57;;;19.20;47.70;;;;;;6216585;28;20181;-81
2022/05/29 17:38:45;;;;;;;5.20;0.50;;;19.00;49.20;;;;;;6218726;28;20207;-82
2022/05/29 17:41:47;;;;;;;;;;;18.90;48.70;;;;;;6224356;28;20064;-83
2022/05/29 17:44:49;;;;;;;1.95;0.68;;;18.70;48.20;;;;;;6230583;28;20000;-83
2022/05/29 17:48:01;;;;;;;2.88;0.52;;;18.60;46.60;;;;;;6231005;28;20509;-82
2022/05/29 17:51:13;;;;;;;2.53;0.80;;;18.50;45.20;;;;;;6215548;28;20058;-81
2022/05/29 17:54:26;;;;;;;3.83;0.50;;;18.40;46.00;;;;;;6205193;28;20054;-82
2022/05/29 17:57:32;;;;;;;3.85;0.65;;;18.30;45.90;;;;;;6204618;28;20149;-81
2022/05/29 18:00:34;;;;;;;5.88;0.73;;;18.20;46.30;;;;;;6203084;28;20050;-81
2022/05/29 18:03:37;;;;;;;1.23;0.35;;;18.10;47.90;;;;;;6202807;28;20050;-82
2022/05/29 18:06:40;;;;;;;4.18;0.88;;;18.00;49.00;;;;;;6204360;28;20050;-82
2022/05/29 18:09:43;;;;;;;3.95;0.70;;;17.90;51.20;;;;;;6204016;28;20046;-81
2022/05/29 18:12:45;;;;;;;0.85;0.40;;;17.80;52.80;;;;;;6223300;28;20049;-82
2022/05/29 18:15:50;;;;;;;1.95;0.60;;;17.70;53.00;;;;;;6229967;28;20071;-81
2022/05/29 18:18:52;;;;;;;1.02;0.63;;;17.60;55.40;;;;;;6229423;28;20109;-81
2022/05/29 18:21:55;;;;;;;2.90;0.60;;;17.60;56.40;;;;;;6230248;28;20049;-81
2022/05/29 18:24:57;;;;;;;1.70;0.35;;;17.50;57.70;;;;;;6229295;28;20050;-82
2022/05/29 18:27:58;;;;;;;3.08;0.50;;;17.40;54.70;;;;;;6233159;28;20152;-82
2022/05/29 18:31:00;;;;;;;6.45;0.80;;;17.20;54.00;;;;;;6231599;28;20050;-82
2022/05/29 18:34:02;;;;;;;2.20;0.38;;;17.10;55.20;;;;;;6230176;28;20072;-81
2022/05/29 18:37:06;;;;;;;1.88;0.60;;;17.00;57.20;;;;;;6214449;28;20050;-82
2022/05/29 18:40:10;;;;;;;7.60;0.75;;;16.80;57.30;;;;;;6218385;28;20060;-82
2022/05/29 18:43:12;;;;;;;2.58;0.60;;;16.70;57.80;;;;;;6215348;28;20049;-82
2022/05/29 18:46:16;;;;;;;5.72;0.65;;;16.50;59.50;;;;;;6214060;28;20089;-82
2022/05/29 18:49:17;;;;;;;2.08;0.75;;;16.50;61.00;;;;;;6209883;28;20113;-82
2022/05/29 18:52:21;;;;;;;2.75;0.70;;;16.30;61.90;;;;;;6230542;28;20408;-82